McDonald, OH (44437)

11:48 AM EDT on October 01, 2016 (GMT -0400)
Mason St | | Change Station

Elev 925 ft 41.18 °N, 80.75 °W | Updated 2 minutes ago

Overcast
Overcast
64.5 °F
Feels Like 64.5 °F
N
0.0
Wind Variable Wind from WNW
Gusts 0.0 mph

Today
High -- | Low -- °F
--% Chance of Precip.
Yesterday
High -- | Low -- °F
Precip. -- in
Pressure 30.11 in
Visibility 10.0 miles
Clouds Mostly Cloudy 700 ft
Overcast 2000 ft
Dew Point 60 °F
Humidity 86%
Rainfall in
Snow Depth Not available.
7:20 AM 7:03 PM
New Moon, 0% visible
METAR KYNG 011451Z 16005KT 10SM BKN007 OVC020 16/14 A3011 RMK AO2 SLP195 T01560139 53000 $
Pressure 30.11 in
Visibility 10.0 miles
Clouds Mostly Cloudy 700 ft
Overcast 2000 ft
Dew Point 60 °F
Humidity 86%
Rainfall in
Snow Depth Not available.
7:20 AM 7:03 PM
New Moon, 0% visible
METAR KYNG 011451Z 16005KT 10SM BKN007 OVC020 16/14 A3011 RMK AO2 SLP195 T01560139 53000 $

10-Day Weather Forecast

Almanac

Astronomy

Oct. 01, 2016 Rise Set
Actual Time
Civil Twilight
Nautical Twilight
Astronomical Twilight
Moon
Length of Visible Light
Length of Day
Tomorrow will be .
, % of the Moon is Illuminated

Today's Extremes

State Highs State Lows

Community

WunderPhotos

Upload Photos

1,942,957 photos uploaded!

WunderBlog® & News

Nearby

Air Quality

  Air Quality AQ Index Pollutant
Not available.

Snow Depth

Station Depth Elevation

Earthquake Activity

City Distance Mag. Time & Date
Minimum magnitude displayed is 2.5.

Coastal Water Temperatures

Place Temperature

Stations

Nearby Weather Stations

Station Location Temp. Windchill Dew Point Humidity Wind Precip. Elev Updated Type
                   

Watches & Warnings

There are currently no watches in effect.